sensor_id;sensor_type;location;lat;lon;timestamp;pressure;altitude;pressure_sealevel;temperature;humidity
61039;BME280;46919;45.816;3.104;2023-03-14T00:00:06;96587.25;;;9.27;99.29
61039;BME280;46919;45.816;3.104;2023-03-14T00:02:33;96562.75;;;9.28;99.65
61039;BME280;46919;45.816;3.104;2023-03-14T00:04:59;96555.41;;;9.23;100.00
61039;BME280;46919;45.816;3.104;2023-03-14T00:07:24;96568.81;;;9.18;100.00
61039;BME280;46919;45.816;3.104;2023-03-14T00:09:50;96568.22;;;9.16;100.00
61039;BME280;46919;45.816;3.104;2023-03-14T00:12:16;96555.66;;;9.22;100.00
61039;BME280;46919;45.816;3.104;2023-03-14T00:14:41;96552.22;;;9.27;100.00
61039;BME280;46919;45.816;3.104;2023-03-14T00:17:07;96565.44;;;9.28;100.00
61039;BME280;46919;45.816;3.104;2023-03-14T00:19:33;96574.09;;;9.30;100.00
61039;BME280;46919;45.816;3.104;2023-03-14T00:21:58;96558.66;;;9.25;100.00
61039;BME280;46919;45.816;3.104;2023-03-14T00:24:24;96551.13;;;9.28;100.00
61039;BME280;46919;45.816;3.104;2023-03-14T00:26:49;96571.97;;;9.32;99.64
61039;BME280;46919;45.816;3.104;2023-03-14T00:29:14;96581.19;;;9.36;100.00
61039;BME280;46919;45.816;3.104;2023-03-14T00:31:40;96580.56;;;9.51;95.29
61039;BME280;46919;45.816;3.104;2023-03-14T00:34:05;96565.97;;;9.47;97.46
61039;BME280;46919;45.816;3.104;2023-03-14T00:36:31;96558.56;;;9.37;99.57
61039;BME280;46919;45.816;3.104;2023-03-14T00:38:56;96569.00;;;9.34;100.00
61039;BME280;46919;45.816;3.104;2023-03-14T00:41:22;96556.72;;;9.43;99.30
61039;BME280;46919;45.816;3.104;2023-03-14T00:43:49;96562.69;;;9.45;98.96
61039;BME280;46919;45.816;3.104;2023-03-14T00:46:15;96544.94;;;9.49;95.75
61039;BME280;46919;45.816;3.104;2023-03-14T00:48:40;96551.47;;;9.53;95.23
61039;BME280;46919;45.816;3.104;2023-03-14T00:51:07;96551.97;;;9.50;97.60
61039;BME280;46919;45.816;3.104;2023-03-14T00:53:38;96534.59;;;9.41;99.27
61039;BME280;46919;45.816;3.104;2023-03-14T00:56:08;96553.16;;;9.37;99.19
61039;BME280;46919;45.816;3.104;2023-03-14T00:58:34;96557.22;;;9.40;100.00
61039;BME280;46919;45.816;3.104;2023-03-14T01:01:07;96568.66;;;9.47;95.49
61039;BME280;46919;45.816;3.104;2023-03-14T01:03:33;96547.53;;;9.39;97.46
61039;BME280;46919;45.816;3.104;2023-03-14T01:06:16;96604.00;;;9.29;97.21
61039;BME280;46919;45.816;3.104;2023-03-14T01:08:43;96566.94;;;9.19;95.55
61039;BME280;46919;45.816;3.104;2023-03-14T01:11:12;96557.63;;;9.10;95.39
61039;BME280;46919;45.816;3.104;2023-03-14T01:13:38;96541.34;;;8.99;96.10
61039;BME280;46919;45.816;3.104;2023-03-14T01:16:05;96543.25;;;9.04;89.00
61039;BME280;46919;45.816;3.104;2023-03-14T01:18:32;96537.81;;;8.99;88.40
61039;BME280;46919;45.816;3.104;2023-03-14T01:20:58;96523.78;;;8.97;84.05
61039;BME280;46919;45.816;3.104;2023-03-14T01:23:24;96534.47;;;8.92;83.75
61039;BME280;46919;45.816;3.104;2023-03-14T01:25:49;96543.63;;;8.74;87.75
61039;BME280;46919;45.816;3.104;2023-03-14T01:28:15;96525.03;;;8.72;87.96
61039;BME280;46919;45.816;3.104;2023-03-14T01:30:41;96529.22;;;8.63;89.20
61039;BME280;46919;45.816;3.104;2023-03-14T01:33:06;96535.22;;;8.70;86.95
61039;BME280;46919;45.816;3.104;2023-03-14T01:35:32;96540.06;;;8.68;87.12
61039;BME280;46919;45.816;3.104;2023-03-14T01:37:57;96538.41;;;8.67;87.38
61039;BME280;46919;45.816;3.104;2023-03-14T01:40:22;96531.38;;;8.66;87.50
61039;BME280;46919;45.816;3.104;2023-03-14T01:43:04;96524.88;;;8.62;87.14
61039;BME280;46919;45.816;3.104;2023-03-14T01:50:59;96534.59;;;8.63;86.53
61039;BME280;46919;45.816;3.104;2023-03-14T01:53:25;96509.84;;;8.66;87.33
61039;BME280;46919;45.816;3.104;2023-03-14T01:55:52;96512.81;;;8.64;87.97
61039;BME280;46919;45.816;3.104;2023-03-14T01:58:18;96497.47;;;8.65;87.93
61039;BME280;46919;45.816;3.104;2023-03-14T02:00:45;96494.03;;;8.69;88.09
61039;BME280;46919;45.816;3.104;2023-03-14T02:03:14;96513.94;;;8.68;88.08
61039;BME280;46919;45.816;3.104;2023-03-14T02:05:42;96490.66;;;8.79;87.08
61039;BME280;46919;45.816;3.104;2023-03-14T02:08:14;96479.06;;;8.79;86.05
61039;BME280;46919;45.816;3.104;2023-03-14T02:10:43;96500.63;;;8.79;86.72
61039;BME280;46919;45.816;3.104;2023-03-14T02:13:10;96484.97;;;8.76;87.69
61039;BME280;46919;45.816;3.104;2023-03-14T02:15:36;96474.75;;;8.78;87.88
61039;BME280;46919;45.816;3.104;2023-03-14T02:18:03;96465.84;;;8.77;87.90
61039;BME280;46919;45.816;3.104;2023-03-14T02:20:49;96473.44;;;8.80;88.05
61039;BME280;46919;45.816;3.104;2023-03-14T02:23:23;96462.47;;;8.87;86.29
61039;BME280;46919;45.816;3.104;2023-03-14T02:26:05;96462.41;;;8.82;86.97
61039;BME280;46919;45.816;3.104;2023-03-14T02:28:34;96459.53;;;8.88;88.20
61039;BME280;46919;45.816;3.104;2023-03-14T02:30:59;96464.09;;;8.88;88.47
61039;BME280;46919;45.816;3.104;2023-03-14T02:33:26;96448.03;;;8.93;87.89
61039;BME280;46919;45.816;3.104;2023-03-14T02:35:56;96449.38;;;8.96;88.19
61039;BME280;46919;45.816;3.104;2023-03-14T02:38:40;96456.53;;;9.07;87.10
61039;BME280;46919;45.816;3.104;2023-03-14T02:41:08;96456.03;;;9.10;87.67
61039;BME280;46919;45.816;3.104;2023-03-14T02:43:34;96454.41;;;9.09;88.01
61039;BME280;46919;45.816;3.104;2023-03-14T02:46:00;96452.28;;;9.11;87.55
61039;BME280;46919;45.816;3.104;2023-03-14T02:48:41;96450.63;;;9.10;87.77
61039;BME280;46919;45.816;3.104;2023-03-14T02:51:08;96443.63;;;9.09;88.90
61039;BME280;46919;45.816;3.104;2023-03-14T02:53:36;96427.91;;;9.01;91.55
61039;BME280;46919;45.816;3.104;2023-03-14T02:56:02;96413.28;;;8.75;94.51
61039;BME280;46919;45.816;3.104;2023-03-14T02:58:28;96411.91;;;8.72;96.15
61039;BME280;46919;45.816;3.104;2023-03-14T03:00:54;96430.88;;;8.60;97.93
61039;BME280;46919;45.816;3.104;2023-03-14T03:03:20;96404.69;;;8.56;97.97
61039;BME280;46919;45.816;3.104;2023-03-14T03:05:50;96403.28;;;8.53;98.15
61039;BME280;46919;45.816;3.104;2023-03-14T03:08:16;96398.16;;;8.51;96.80
61039;BME280;46919;45.816;3.104;2023-03-14T03:10:41;96397.28;;;8.46;97.80
61039;BME280;46919;45.816;3.104;2023-03-14T03:13:07;96401.97;;;8.39;97.83
61039;BME280;46919;45.816;3.104;2023-03-14T03:15:32;96415.19;;;8.40;97.57
61039;BME280;46919;45.816;3.104;2023-03-14T03:17:58;96397.94;;;8.36;98.71
61039;BME280;46919;45.816;3.104;2023-03-14T03:20:23;96390.59;;;8.31;99.69
61039;BME280;46919;45.816;3.104;2023-03-14T03:22:48;96392.69;;;8.29;100.00
61039;BME280;46919;45.816;3.104;2023-03-14T03:25:15;96398.25;;;8.40;99.74
61039;BME280;46919;45.816;3.104;2023-03-14T03:27:40;96400.22;;;8.44;99.73
61039;BME280;46919;45.816;3.104;2023-03-14T03:30:07;96400.03;;;8.51;100.00
61039;BME280;46919;45.816;3.104;2023-03-14T03:32:33;96391.41;;;8.49;100.00
61039;BME280;46919;45.816;3.104;2023-03-14T03:34:59;96383.56;;;8.47;100.00
61039;BME280;46919;45.816;3.104;2023-03-14T03:37:24;96376.56;;;8.46;100.00
61039;BME280;46919;45.816;3.104;2023-03-14T03:39:51;96375.56;;;8.52;100.00
61039;BME280;46919;45.816;3.104;2023-03-14T03:42:17;96386.31;;;8.52;100.00
61039;BME280;46919;45.816;3.104;2023-03-14T03:44:43;96363.16;;;8.51;100.00
61039;BME280;46919;45.816;3.104;2023-03-14T03:47:08;96385.34;;;8.59;100.00
61039;BME280;46919;45.816;3.104;2023-03-14T03:49:34;96364.94;;;8.63;100.00
61039;BME280;46919;45.816;3.104;2023-03-14T03:51:59;96367.47;;;8.52;100.00
61039;BME280;46919;45.816;3.104;2023-03-14T03:54:25;96345.78;;;8.42;100.00
61039;BME280;46919;45.816;3.104;2023-03-14T03:56:50;96337.06;;;8.35;100.00
61039;BME280;46919;45.816;3.104;2023-03-14T03:59:16;96344.88;;;8.37;100.00
61039;BME280;46919;45.816;3.104;2023-03-14T04:01:42;96320.81;;;8.47;100.00
61039;BME280;46919;45.816;3.104;2023-03-14T04:04:07;96321.56;;;8.42;100.00
61039;BME280;46919;45.816;3.104;2023-03-14T04:06:33;96345.13;;;8.52;100.00
61039;BME280;46919;45.816;3.104;2023-03-14T04:08:58;96338.25;;;8.61;100.00
61039;BME280;46919;45.816;3.104;2023-03-14T04:11:24;96329.28;;;8.56;100.00
61039;BME280;46919;45.816;3.104;2023-03-14T04:13:49;96320.72;;;8.59;100.00
61039;BME280;46919;45.816;3.104;2023-03-14T04:16:17;96325.03;;;8.60;100.00
61039;BME280;46919;45.816;3.104;2023-03-14T04:18:43;96320.00;;;8.68;100.00
61039;BME280;46919;45.816;3.104;2023-03-14T04:21:08;96272.84;;;8.66;100.00
61039;BME280;46919;45.816;3.104;2023-03-14T04:23:34;96282.69;;;8.77;100.00
61039;BME280;46919;45.816;3.104;2023-03-14T04:25:59;96271.84;;;8.72;100.00
61039;BME280;46919;45.816;3.104;2023-03-14T04:28:25;96284.00;;;8.75;100.00
61039;BME280;46919;45.816;3.104;2023-03-14T04:30:50;96274.91;;;8.81;100.00
61039;BME280;46919;45.816;3.104;2023-03-14T04:33:16;96287.13;;;8.88;100.00
61039;BME280;46919;45.816;3.104;2023-03-14T04:35:45;96279.78;;;8.84;100.00
61039;BME280;46919;45.816;3.104;2023-03-14T04:38:11;96284.38;;;8.83;100.00
61039;BME280;46919;45.816;3.104;2023-03-14T04:40:38;96281.06;;;8.76;100.00
61039;BME280;46919;45.816;3.104;2023-03-14T04:43:03;96306.84;;;8.72;100.00
61039;BME280;46919;45.816;3.104;2023-03-14T04:45:29;96302.53;;;8.71;100.00
61039;BME280;46919;45.816;3.104;2023-03-14T04:47:54;96346.63;;;8.65;100.00
61039;BME280;46919;45.816;3.104;2023-03-14T04:50:20;96380.66;;;8.71;100.00
61039;BME280;46919;45.816;3.104;2023-03-14T04:52:45;96411.41;;;8.75;100.00
61039;BME280;46919;45.816;3.104;2023-03-14T04:55:10;96407.34;;;8.73;100.00
61039;BME280;46919;45.816;3.104;2023-03-14T04:57:36;96419.66;;;8.68;100.00
61039;BME280;46919;45.816;3.104;2023-03-14T05:00:03;96420.91;;;8.61;100.00
61039;BME280;46919;45.816;3.104;2023-03-14T05:02:31;96434.97;;;8.63;100.00
61039;BME280;46919;45.816;3.104;2023-03-14T05:04:57;96406.00;;;8.75;100.00
61039;BME280;46919;45.816;3.104;2023-03-14T05:07:22;96407.00;;;8.69;100.00
61039;BME280;46919;45.816;3.104;2023-03-14T05:09:48;96398.63;;;8.65;100.00
61039;BME280;46919;45.816;3.104;2023-03-14T05:12:13;96400.09;;;8.56;100.00
61039;BME280;46919;45.816;3.104;2023-03-14T05:14:39;96413.50;;;8.51;100.00
61039;BME280;46919;45.816;3.104;2023-03-14T05:17:04;96418.25;;;8.44;100.00
61039;BME280;46919;45.816;3.104;2023-03-14T05:19:30;96422.72;;;8.38;100.00
61039;BME280;46919;45.816;3.104;2023-03-14T05:21:55;96437.22;;;8.37;100.00
61039;BME280;46919;45.816;3.104;2023-03-14T05:24:21;96452.44;;;8.43;100.00
61039;BME280;46919;45.816;3.104;2023-03-14T05:26:46;96473.72;;;8.62;100.00
61039;BME280;46919;45.816;3.104;2023-03-14T05:29:12;96479.53;;;8.54;100.00
61039;BME280;46919;45.816;3.104;2023-03-14T05:31:37;96496.72;;;8.52;100.00
61039;BME280;46919;45.816;3.104;2023-03-14T05:34:02;96514.94;;;8.45;100.00
61039;BME280;46919;45.816;3.104;2023-03-14T05:36:28;96493.41;;;8.45;100.00
61039;BME280;46919;45.816;3.104;2023-03-14T05:38:53;96496.97;;;8.51;100.00
61039;BME280;46919;45.816;3.104;2023-03-14T05:41:19;96509.66;;;8.39;100.00
61039;BME280;46919;45.816;3.104;2023-03-14T05:43:44;96505.25;;;8.32;100.00
61039;BME280;46919;45.816;3.104;2023-03-14T05:46:10;96498.44;;;8.25;100.00
61039;BME280;46919;45.816;3.104;2023-03-14T05:48:35;96517.66;;;8.16;100.00
61039;BME280;46919;45.816;3.104;2023-03-14T05:51:00;96499.28;;;8.13;100.00
61039;BME280;46919;45.816;3.104;2023-03-14T05:53:26;96514.56;;;8.08;100.00
61039;BME280;46919;45.816;3.104;2023-03-14T05:55:52;96525.22;;;8.03;100.00
61039;BME280;46919;45.816;3.104;2023-03-14T05:58:18;96559.84;;;7.99;100.00
61039;BME280;46919;45.816;3.104;2023-03-14T06:00:43;96549.19;;;8.04;100.00
61039;BME280;46919;45.816;3.104;2023-03-14T06:03:09;96556.41;;;7.87;100.00
61039;BME280;46919;45.816;3.104;2023-03-14T06:05:34;96570.13;;;7.73;100.00
61039;BME280;46919;45.816;3.104;2023-03-14T06:08:00;96591.75;;;7.78;100.00
61039;BME280;46919;45.816;3.104;2023-03-14T06:10:25;96595.25;;;7.79;100.00
61039;BME280;46919;45.816;3.104;2023-03-14T06:12:50;96612.22;;;7.79;100.00
61039;BME280;46919;45.816;3.104;2023-03-14T06:15:16;96647.13;;;8.03;100.00
61039;BME280;46919;45.816;3.104;2023-03-14T06:17:41;96634.81;;;8.07;100.00
61039;BME280;46919;45.816;3.104;2023-03-14T06:20:08;96641.16;;;8.01;100.00
61039;BME280;46919;45.816;3.104;2023-03-14T06:22:33;96678.59;;;7.91;100.00
61039;BME280;46919;45.816;3.104;2023-03-14T06:24:59;96660.34;;;7.93;100.00
61039;BME280;46919;45.816;3.104;2023-03-14T06:27:24;96657.78;;;7.86;100.00
61039;BME280;46919;45.816;3.104;2023-03-14T06:29:50;96688.78;;;7.89;100.00
61039;BME280;46919;45.816;3.104;2023-03-14T06:32:15;96694.19;;;7.89;100.00
61039;BME280;46919;45.816;3.104;2023-03-14T06:34:40;96708.09;;;7.86;100.00
61039;BME280;46919;45.816;3.104;2023-03-14T06:37:06;96715.81;;;7.82;100.00
61039;BME280;46919;45.816;3.104;2023-03-14T06:39:32;96712.19;;;7.76;100.00
61039;BME280;46919;45.816;3.104;2023-03-14T06:41:57;96730.44;;;7.74;100.00
61039;BME280;46919;45.816;3.104;2023-03-14T06:44:22;96719.59;;;7.69;100.00
61039;BME280;46919;45.816;3.104;2023-03-14T06:46:48;96742.16;;;7.68;100.00
61039;BME280;46919;45.816;3.104;2023-03-14T06:49:13;96746.72;;;7.68;100.00
61039;BME280;46919;45.816;3.104;2023-03-14T06:51:39;96777.91;;;7.69;100.00
61039;BME280;46919;45.816;3.104;2023-03-14T06:54:04;96780.38;;;7.82;100.00
61039;BME280;46919;45.816;3.104;2023-03-14T06:56:30;96784.47;;;7.85;100.00
61039;BME280;46919;45.816;3.104;2023-03-14T06:58:55;96793.94;;;7.75;100.00
61039;BME280;46919;45.816;3.104;2023-03-14T07:01:27;96809.59;;;7.67;100.00
61039;BME280;46919;45.816;3.104;2023-03-14T07:03:53;96855.09;;;7.68;100.00
61039;BME280;46919;45.816;3.104;2023-03-14T07:06:18;96850.53;;;7.69;100.00
61039;BME280;46919;45.816;3.104;2023-03-14T07:08:44;96872.72;;;7.64;100.00
61039;BME280;46919;45.816;3.104;2023-03-14T07:11:10;96889.72;;;7.65;100.00
61039;BME280;46919;45.816;3.104;2023-03-14T07:13:37;96892.41;;;7.65;100.00
61039;BME280;46919;45.816;3.104;2023-03-14T07:16:03;96907.34;;;7.60;100.00
61039;BME280;46919;45.816;3.104;2023-03-14T07:18:29;96924.28;;;7.61;100.00
61039;BME280;46919;45.816;3.104;2023-03-14T07:20:54;96909.69;;;7.57;100.00
61039;BME280;46919;45.816;3.104;2023-03-14T07:23:20;96925.69;;;7.52;100.00
61039;BME280;46919;45.816;3.104;2023-03-14T07:25:45;96912.09;;;7.47;100.00
61039;BME280;46919;45.816;3.104;2023-03-14T07:28:10;96931.97;;;7.46;100.00
61039;BME280;46919;45.816;3.104;2023-03-14T07:30:36;96945.41;;;7.46;100.00
61039;BME280;46919;45.816;3.104;2023-03-14T07:33:01;96970.53;;;7.51;100.00
61039;BME280;46919;45.816;3.104;2023-03-14T07:35:27;96993.47;;;7.54;100.00
61039;BME280;46919;45.816;3.104;2023-03-14T07:37:52;97008.31;;;7.56;95.45
61039;BME280;46919;45.816;3.104;2023-03-14T07:40:18;96993.47;;;7.54;96.87
61039;BME280;46919;45.816;3.104;2023-03-14T07:42:44;97013.34;;;7.53;98.12
61039;BME280;46919;45.816;3.104;2023-03-14T07:45:10;97005.72;;;7.50;100.00
61039;BME280;46919;45.816;3.104;2023-03-14T07:47:36;97011.31;;;7.48;100.00
61039;BME280;46919;45.816;3.104;2023-03-14T07:50:03;97025.00;;;7.47;100.00
61039;BME280;46919;45.816;3.104;2023-03-14T07:52:28;97040.09;;;7.48;100.00
61039;BME280;46919;45.816;3.104;2023-03-14T07:54:54;97050.25;;;7.46;99.76
61039;BME280;46919;45.816;3.104;2023-03-14T07:57:19;97055.19;;;7.49;97.42
61039;BME280;46919;45.816;3.104;2023-03-14T07:59:45;97052.28;;;7.50;97.35
61039;BME280;46919;45.816;3.104;2023-03-14T08:02:11;97057.25;;;7.47;98.17
61039;BME280;46919;45.816;3.104;2023-03-14T08:04:38;97063.47;;;7.47;100.00
61039;BME280;46919;45.816;3.104;2023-03-14T08:07:04;97075.50;;;7.44;100.00
61039;BME280;46919;45.816;3.104;2023-03-14T08:09:30;97081.47;;;7.47;100.00
61039;BME280;46919;45.816;3.104;2023-03-14T08:11:55;97077.97;;;7.46;100.00
61039;BME280;46919;45.816;3.104;2023-03-14T08:14:20;97090.19;;;7.42;100.00
61039;BME280;46919;45.816;3.104;2023-03-14T08:16:49;97088.47;;;7.29;100.00
61039;BME280;46919;45.816;3.104;2023-03-14T08:19:15;97106.69;;;7.27;100.00
61039;BME280;46919;45.816;3.104;2023-03-14T08:21:40;97114.91;;;7.32;100.00
61039;BME280;46919;45.816;3.104;2023-03-14T08:24:05;97107.69;;;7.33;100.00
61039;BME280;46919;45.816;3.104;2023-03-14T08:26:31;97127.31;;;7.33;100.00
61039;BME280;46919;45.816;3.104;2023-03-14T08:28:56;97118.66;;;7.31;100.00
61039;BME280;46919;45.816;3.104;2023-03-14T08:31:22;97138.06;;;7.33;100.00
61039;BME280;46919;45.816;3.104;2023-03-14T08:33:47;97145.47;;;7.38;100.00
61039;BME280;46919;45.816;3.104;2023-03-14T08:36:13;97155.38;;;7.37;100.00
61039;BME280;46919;45.816;3.104;2023-03-14T08:38:38;97165.88;;;7.46;100.00
61039;BME280;46919;45.816;3.104;2023-03-14T08:41:04;97168.31;;;7.47;100.00
61039;BME280;46919;45.816;3.104;2023-03-14T08:43:30;97171.84;;;7.48;100.00
61039;BME280;46919;45.816;3.104;2023-03-14T08:45:59;97177.94;;;7.55;100.00
61039;BME280;46919;45.816;3.104;2023-03-14T08:48:25;97174.44;;;7.54;100.00
61039;BME280;46919;45.816;3.104;2023-03-14T08:50:50;97192.81;;;7.57;100.00
61039;BME280;46919;45.816;3.104;2023-03-14T08:53:15;97201.00;;;7.69;100.00
61039;BME280;46919;45.816;3.104;2023-03-14T08:55:41;97199.94;;;7.89;100.00
61039;BME280;46919;45.816;3.104;2023-03-14T08:58:06;97190.94;;;8.13;100.00
61039;BME280;46919;45.816;3.104;2023-03-14T09:00:32;97191.97;;;8.31;100.00
61039;BME280;46919;45.816;3.104;2023-03-14T09:02:57;97185.31;;;8.33;100.00
61039;BME280;46919;45.816;3.104;2023-03-14T09:05:22;97188.34;;;8.37;99.21
61039;BME280;46919;45.816;3.104;2023-03-14T09:07:48;97184.22;;;8.53;100.00
61039;BME280;46919;45.816;3.104;2023-03-14T09:10:13;97178.38;;;8.56;97.37
61039;BME280;46919;45.816;3.104;2023-03-14T09:12:39;97193.50;;;8.57;99.43
61039;BME280;46919;45.816;3.104;2023-03-14T09:15:04;97189.75;;;8.88;97.05
61039;BME280;46919;45.816;3.104;2023-03-14T09:17:30;97179.91;;;9.18;96.29
61039;BME280;46919;45.816;3.104;2023-03-14T09:19:55;97197.63;;;9.25;93.58
61039;BME280;46919;45.816;3.104;2023-03-14T09:22:21;97177.09;;;9.24;93.91
61039;BME280;46919;45.816;3.104;2023-03-14T09:24:46;97186.50;;;9.22;90.57
61039;BME280;46919;45.816;3.104;2023-03-14T09:27:12;97191.88;;;9.34;92.07
61039;BME280;46919;45.816;3.104;2023-03-14T09:29:38;97196.94;;;9.42;92.28
61039;BME280;46919;45.816;3.104;2023-03-14T09:32:03;97206.44;;;9.33;93.69
61039;BME280;46919;45.816;3.104;2023-03-14T09:34:29;97212.28;;;9.18;94.30
61039;BME280;46919;45.816;3.104;2023-03-14T09:36:55;97222.66;;;8.91;95.85
61039;BME280;46919;45.816;3.104;2023-03-14T09:39:20;97233.25;;;8.74;98.02
61039;BME280;46919;45.816;3.104;2023-03-14T09:41:48;97242.56;;;8.59;98.42
61039;BME280;46919;45.816;3.104;2023-03-14T09:44:36;97252.75;;;8.57;99.70
61039;BME280;46919;45.816;3.104;2023-03-14T09:47:05;97244.78;;;8.50;100.00
61039;BME280;46919;45.816;3.104;2023-03-14T09:49:34;97253.75;;;8.44;100.00
61039;BME280;46919;45.816;3.104;2023-03-14T09:52:06;97258.34;;;8.37;100.00
61039;BME280;46919;45.816;3.104;2023-03-14T09:54:49;97257.09;;;8.40;100.00
61039;BME280;46919;45.816;3.104;2023-03-14T09:57:18;97247.72;;;8.61;100.00
61039;BME280;46919;45.816;3.104;2023-03-14T09:59:45;97254.44;;;8.70;100.00
61039;BME280;46919;45.816;3.104;2023-03-14T10:02:23;97243.50;;;8.83;100.00
61039;BME280;46919;45.816;3.104;2023-03-14T10:04:52;97253.78;;;8.86;100.00
61039;BME280;46919;45.816;3.104;2023-03-14T10:07:30;97251.25;;;8.92;100.00
61039;BME280;46919;45.816;3.104;2023-03-14T10:09:56;97256.25;;;8.88;99.44
61039;BME280;46919;45.816;3.104;2023-03-14T10:12:33;97248.91;;;8.83;97.04
61039;BME280;46919;45.816;3.104;2023-03-14T10:15:07;97268.13;;;8.87;97.82
61039;BME280;46919;45.816;3.104;2023-03-14T10:17:43;97259.81;;;8.88;99.46
61039;BME280;46919;45.816;3.104;2023-03-14T10:23:07;97259.94;;;8.94;86.89
61039;BME280;46919;45.816;3.104;2023-03-14T10:25:46;97251.63;;;8.95;86.83
61039;BME280;46919;45.816;3.104;2023-03-14T10:28:25;97253.56;;;9.18;83.03
61039;BME280;46919;45.816;3.104;2023-03-14T10:30:51;97273.81;;;9.09;79.08
61039;BME280;46919;45.816;3.104;2023-03-14T10:33:25;97248.63;;;9.15;74.13
61039;BME280;46919;45.816;3.104;2023-03-14T10:36:00;97288.59;;;9.18;77.72
61039;BME280;46919;45.816;3.104;2023-03-14T10:38:31;97280.38;;;9.13;77.73
61039;BME280;46919;45.816;3.104;2023-03-14T10:40:57;97265.56;;;9.04;68.86
61039;BME280;46919;45.816;3.104;2023-03-14T10:43:35;97260.88;;;8.99;69.53
61039;BME280;46919;45.816;3.104;2023-03-14T10:46:05;97282.69;;;8.98;72.26
61039;BME280;46919;45.816;3.104;2023-03-14T10:48:37;97269.81;;;9.12;70.96
61039;BME280;46919;45.816;3.104;2023-03-14T10:51:05;97276.44;;;9.39;67.41
61039;BME280;46919;45.816;3.104;2023-03-14T10:56:03;97277.53;;;9.86;69.15
61039;BME280;46919;45.816;3.104;2023-03-14T10:58:33;97275.88;;;9.96;73.08
61039;BME280;46919;45.816;3.104;2023-03-14T11:07:28;97264.38;;;9.66;59.61
61039;BME280;46919;45.816;3.104;2023-03-14T11:10:00;97251.13;;;9.52;58.86
61039;BME280;46919;45.816;3.104;2023-03-14T11:12:58;97283.16;;;9.60;59.99
61039;BME280;46919;45.816;3.104;2023-03-14T11:21:28;97278.06;;;10.47;57.54
61039;BME280;46919;45.816;3.104;2023-03-14T11:31:47;97304.97;;;10.82;57.22
61039;BME280;46919;45.816;3.104;2023-03-14T11:34:39;97297.50;;;10.61;52.11
61039;BME280;46919;45.816;3.104;2023-03-14T11:37:34;97294.22;;;10.71;53.65
61039;BME280;46919;45.816;3.104;2023-03-14T11:42:35;97297.66;;;11.12;55.78
61039;BME280;46919;45.816;3.104;2023-03-14T11:45:02;97310.00;;;11.36;56.51
61039;BME280;46919;45.816;3.104;2023-03-14T11:47:39;97315.06;;;11.16;53.07
61039;BME280;46919;45.816;3.104;2023-03-14T11:50:23;97303.03;;;11.23;52.42
61039;BME280;46919;45.816;3.104;2023-03-14T11:52:54;97317.84;;;11.21;53.52
61039;BME280;46919;45.816;3.104;2023-03-14T11:55:33;97322.47;;;11.37;51.39
61039;BME280;46919;45.816;3.104;2023-03-14T11:58:19;97305.81;;;11.29;50.66
61039;BME280;46919;45.816;3.104;2023-03-14T12:00:48;97304.88;;;11.52;51.85
61039;BME280;46919;45.816;3.104;2023-03-14T12:03:17;97313.31;;;11.72;51.71
61039;BME280;46919;45.816;3.104;2023-03-14T12:08:49;97317.88;;;12.23;49.49
61039;BME280;46919;45.816;3.104;2023-03-14T12:11:17;97322.22;;;12.24;49.99
61039;BME280;46919;45.816;3.104;2023-03-14T12:13:52;97307.91;;;12.45;52.23
61039;BME280;46919;45.816;3.104;2023-03-14T12:18:50;97319.78;;;13.11;52.02
61039;BME280;46919;45.816;3.104;2023-03-14T12:21:16;97314.31;;;13.60;51.77
61039;BME280;46919;45.816;3.104;2023-03-14T12:23:50;97316.13;;;13.54;48.61
61039;BME280;46919;45.816;3.104;2023-03-14T12:26:21;97341.13;;;13.29;51.22
61039;BME280;46919;45.816;3.104;2023-03-14T12:29:37;97334.25;;;13.44;47.64
61039;BME280;46919;45.816;3.104;2023-03-14T12:31:38;97336.66;;;13.67;48.37
61039;BME280;46919;45.816;3.104;2023-03-14T12:42:03;97321.69;;;13.65;44.83
61039;BME280;46919;45.816;3.104;2023-03-14T12:49:42;97309.69;;;14.41;44.25
61039;BME280;46919;45.816;3.104;2023-03-14T12:52:17;97321.09;;;14.38;45.31
61039;BME280;46919;45.816;3.104;2023-03-14T13:00:23;97309.94;;;14.92;44.18
61039;BME280;46919;45.816;3.104;2023-03-14T13:02:49;97328.56;;;15.21;42.47
61039;BME280;46919;45.816;3.104;2023-03-14T13:12:47;97330.81;;;14.28;41.55
61039;BME280;46919;45.816;3.104;2023-03-14T13:15:18;97349.69;;;14.45;40.96
61039;BME280;46919;45.816;3.104;2023-03-14T13:17:45;97380.84;;;14.27;41.78
61039;BME280;46919;45.816;3.104;2023-03-14T13:20:46;97356.09;;;13.86;41.39
61039;BME280;46919;45.816;3.104;2023-03-14T13:23:33;97356.53;;;13.23;43.51
61039;BME280;46919;45.816;3.104;2023-03-14T13:25:59;97358.06;;;12.70;43.96
61039;BME280;46919;45.816;3.104;2023-03-14T13:28:26;97361.59;;;12.48;44.39
61039;BME280;46919;45.816;3.104;2023-03-14T13:30:58;97343.41;;;12.27;46.61
61039;BME280;46919;45.816;3.104;2023-03-14T13:33:24;97341.59;;;12.99;47.49
61039;BME280;46919;45.816;3.104;2023-03-14T13:36:04;97355.84;;;13.33;47.45
61039;BME280;46919;45.816;3.104;2023-03-14T13:38:33;97336.97;;;13.76;45.46
61039;BME280;46919;45.816;3.104;2023-03-14T13:41:03;97342.41;;;13.76;44.00
61039;BME280;46919;45.816;3.104;2023-03-14T13:43:35;97341.75;;;13.96;45.16
61039;BME280;46919;45.816;3.104;2023-03-14T13:48:28;97331.88;;;13.52;45.27
61039;BME280;46919;45.816;3.104;2023-03-14T13:51:04;97338.50;;;13.34;45.83
61039;BME280;46919;45.816;3.104;2023-03-14T13:53:30;97335.84;;;13.39;45.88
61039;BME280;46919;45.816;3.104;2023-03-14T13:56:01;97330.91;;;12.87;45.46
61039;BME280;46919;45.816;3.104;2023-03-14T13:58:29;97334.63;;;12.81;45.93
61039;BME280;46919;45.816;3.104;2023-03-14T14:01:02;97346.03;;;12.61;44.78
61039;BME280;46919;45.816;3.104;2023-03-14T14:03:31;97330.78;;;12.77;44.93
61039;BME280;46919;45.816;3.104;2023-03-14T14:05:57;97330.91;;;12.87;44.96
61039;BME280;46919;45.816;3.104;2023-03-14T14:08:24;97336.25;;;13.04;44.91
61039;BME280;46919;45.816;3.104;2023-03-14T14:10:55;97332.81;;;13.36;43.74
61039;BME280;46919;45.816;3.104;2023-03-14T14:13:23;97325.13;;;13.55;43.76
61039;BME280;46919;45.816;3.104;2023-03-14T14:15:51;97342.69;;;13.80;42.23